sensor_id;sensor_type;location;lat;lon;timestamp;pressure;altitude;pressure_sealevel;temperature;humidity
62025;BME280;47978;49.118;12.146;2024-01-27T00:01:00;98908.47;;;-0.47;100.00
62025;BME280;47978;49.118;12.146;2024-01-27T00:05:03;98927.75;;;-0.42;100.00
62025;BME280;47978;49.118;12.146;2024-01-27T00:09:05;98928.47;;;-0.55;100.00
62025;BME280;47978;49.118;12.146;2024-01-27T00:13:07;98920.00;;;-0.45;100.00
62025;BME280;47978;49.118;12.146;2024-01-27T00:17:08;98922.94;;;-0.40;100.00
62025;BME280;47978;49.118;12.146;2024-01-27T00:21:11;98931.72;;;-0.38;100.00
62025;BME280;47978;49.118;12.146;2024-01-27T00:25:12;98917.06;;;-0.43;100.00
62025;BME280;47978;49.118;12.146;2024-01-27T00:29:14;98908.28;;;-0.46;100.00
62025;BME280;47978;49.118;12.146;2024-01-27T00:33:15;98912.34;;;-0.63;100.00
62025;BME280;47978;49.118;12.146;2024-01-27T00:37:18;98907.28;;;-0.73;100.00
62025;BME280;47978;49.118;12.146;2024-01-27T00:41:20;98915.81;;;-0.76;100.00
62025;BME280;47978;49.118;12.146;2024-01-27T00:45:21;98922.03;;;-0.82;100.00
62025;BME280;47978;49.118;12.146;2024-01-27T00:49:23;98939.34;;;-0.83;100.00
62025;BME280;47978;49.118;12.146;2024-01-27T00:53:26;98936.81;;;-0.91;100.00
62025;BME280;47978;49.118;12.146;2024-01-27T00:57:27;98941.59;;;-0.93;100.00
62025;BME280;47978;49.118;12.146;2024-01-27T01:01:29;98947.84;;;-0.93;100.00
62025;BME280;47978;49.118;12.146;2024-01-27T01:05:30;98951.75;;;-1.02;100.00
62025;BME280;47978;49.118;12.146;2024-01-27T01:09:33;98965.22;;;-0.87;100.00
62025;BME280;47978;49.118;12.146;2024-01-27T01:13:35;98966.72;;;-1.06;100.00
62025;BME280;47978;49.118;12.146;2024-01-27T01:17:37;98971.06;;;-1.11;100.00
62025;BME280;47978;49.118;12.146;2024-01-27T01:21:38;98964.81;;;-1.12;100.00
62025;BME280;47978;49.118;12.146;2024-01-27T01:25:41;98959.63;;;-1.28;100.00
62025;BME280;47978;49.118;12.146;2024-01-27T01:29:42;98957.69;;;-1.34;100.00
62025;BME280;47978;49.118;12.146;2024-01-27T01:33:44;98965.94;;;-1.43;100.00
62025;BME280;47978;49.118;12.146;2024-01-27T01:37:46;98964.94;;;-1.42;100.00
62025;BME280;47978;49.118;12.146;2024-01-27T01:41:49;98958.75;;;-1.36;100.00
62025;BME280;47978;49.118;12.146;2024-01-27T01:45:51;98966.59;;;-1.41;100.00
62025;BME280;47978;49.118;12.146;2024-01-27T01:49:53;98978.63;;;-1.50;100.00
62025;BME280;47978;49.118;12.146;2024-01-27T01:53:57;98977.50;;;-1.34;100.00
62025;BME280;47978;49.118;12.146;2024-01-27T01:58:01;98979.88;;;-1.31;100.00
62025;BME280;47978;49.118;12.146;2024-01-27T02:02:02;98967.56;;;-1.48;100.00
62025;BME280;47978;49.118;12.146;2024-01-27T02:06:05;98975.31;;;-1.45;100.00
62025;BME280;47978;49.118;12.146;2024-01-27T02:10:13;98978.78;;;-1.51;100.00
62025;BME280;47978;49.118;12.146;2024-01-27T02:14:16;98983.59;;;-1.53;100.00
62025;BME280;47978;49.118;12.146;2024-01-27T02:18:17;98995.00;;;-1.58;100.00
62025;BME280;47978;49.118;12.146;2024-01-27T02:22:19;98993.41;;;-1.52;100.00
62025;BME280;47978;49.118;12.146;2024-01-27T02:26:22;98995.94;;;-1.66;100.00
62025;BME280;47978;49.118;12.146;2024-01-27T02:30:23;99006.75;;;-1.51;100.00
62025;BME280;47978;49.118;12.146;2024-01-27T02:34:25;99011.34;;;-1.51;100.00
62025;BME280;47978;49.118;12.146;2024-01-27T02:38:27;99012.50;;;-1.61;100.00
62025;BME280;47978;49.118;12.146;2024-01-27T02:42:30;99008.75;;;-1.60;100.00
62025;BME280;47978;49.118;12.146;2024-01-27T02:46:31;99011.03;;;-1.78;100.00
62025;BME280;47978;49.118;12.146;2024-01-27T02:50:33;99020.22;;;-1.79;100.00
62025;BME280;47978;49.118;12.146;2024-01-27T02:54:34;99015.91;;;-1.73;100.00
62025;BME280;47978;49.118;12.146;2024-01-27T02:58:37;99013.09;;;-1.80;100.00
62025;BME280;47978;49.118;12.146;2024-01-27T03:02:38;99014.88;;;-1.87;100.00
62025;BME280;47978;49.118;12.146;2024-01-27T03:06:40;99015.91;;;-1.73;100.00
62025;BME280;47978;49.118;12.146;2024-01-27T03:10:42;99022.34;;;-1.74;100.00
62025;BME280;47978;49.118;12.146;2024-01-27T03:14:44;99027.69;;;-1.81;100.00
62025;BME280;47978;49.118;12.146;2024-01-27T03:18:46;99025.91;;;-1.89;100.00
62025;BME280;47978;49.118;12.146;2024-01-27T03:22:48;99027.13;;;-1.91;100.00
62025;BME280;47978;49.118;12.146;2024-01-27T03:26:49;99035.91;;;-1.89;100.00
62025;BME280;47978;49.118;12.146;2024-01-27T03:30:52;99044.59;;;-1.94;100.00
62025;BME280;47978;49.118;12.146;2024-01-27T03:34:54;99061.25;;;-1.67;100.00
62025;BME280;47978;49.118;12.146;2024-01-27T03:38:56;99065.56;;;-1.88;100.00
62025;BME280;47978;49.118;12.146;2024-01-27T03:42:58;99072.94;;;-1.96;100.00
62025;BME280;47978;49.118;12.146;2024-01-27T03:47:01;99081.41;;;-1.99;100.00
62025;BME280;47978;49.118;12.146;2024-01-27T03:51:03;99087.50;;;-1.97;100.00
62025;BME280;47978;49.118;12.146;2024-01-27T03:55:06;99080.78;;;-2.01;100.00
62025;BME280;47978;49.118;12.146;2024-01-27T03:59:07;99085.63;;;-1.97;100.00
62025;BME280;47978;49.118;12.146;2024-01-27T04:03:10;99100.88;;;-1.96;100.00
62025;BME280;47978;49.118;12.146;2024-01-27T04:07:12;99094.44;;;-1.95;100.00
62025;BME280;47978;49.118;12.146;2024-01-27T04:11:20;99099.09;;;-2.04;100.00
62025;BME280;47978;49.118;12.146;2024-01-27T04:15:22;99103.56;;;-2.11;100.00
62025;BME280;47978;49.118;12.146;2024-01-27T04:19:25;99117.78;;;-2.09;100.00
62025;BME280;47978;49.118;12.146;2024-01-27T04:23:26;99118.34;;;-1.98;100.00
62025;BME280;47978;49.118;12.146;2024-01-27T04:27:28;99124.44;;;-1.82;100.00
62025;BME280;47978;49.118;12.146;2024-01-27T04:31:30;99122.38;;;-1.94;100.00
62025;BME280;47978;49.118;12.146;2024-01-27T04:35:33;99127.69;;;-2.01;100.00
62025;BME280;47978;49.118;12.146;2024-01-27T04:39:34;99127.63;;;-1.93;100.00
62025;BME280;47978;49.118;12.146;2024-01-27T04:43:36;99132.91;;;-1.99;100.00
62025;BME280;47978;49.118;12.146;2024-01-27T04:47:37;99137.88;;;-2.03;100.00
62025;BME280;47978;49.118;12.146;2024-01-27T04:51:40;99149.44;;;-2.09;100.00
62025;BME280;47978;49.118;12.146;2024-01-27T04:55:42;99154.97;;;-2.03;100.00
62025;BME280;47978;49.118;12.146;2024-01-27T04:59:43;99154.41;;;-2.13;100.00
62025;BME280;47978;49.118;12.146;2024-01-27T05:03:45;99159.53;;;-2.18;100.00
62025;BME280;47978;49.118;12.146;2024-01-27T05:07:48;99160.56;;;-2.19;100.00
62025;BME280;47978;49.118;12.146;2024-01-27T05:11:50;99157.91;;;-2.27;100.00
62025;BME280;47978;49.118;12.146;2024-01-27T05:15:51;99151.47;;;-2.26;100.00
62025;BME280;47978;49.118;12.146;2024-01-27T05:19:53;99148.88;;;-2.42;100.00
62025;BME280;47978;49.118;12.146;2024-01-27T05:23:56;99154.50;;;-2.44;100.00
62025;BME280;47978;49.118;12.146;2024-01-27T05:27:58;99159.25;;;-2.46;100.00
62025;BME280;47978;49.118;12.146;2024-01-27T05:31:59;99164.94;;;-2.56;100.00
62025;BME280;47978;49.118;12.146;2024-01-27T05:36:01;99174.09;;;-2.65;100.00
62025;BME280;47978;49.118;12.146;2024-01-27T05:40:05;99171.63;;;-2.75;100.00
62025;BME280;47978;49.118;12.146;2024-01-27T05:44:07;99173.19;;;-2.80;100.00
62025;BME280;47978;49.118;12.146;2024-01-27T05:48:08;99170.34;;;-2.79;100.00
62025;BME280;47978;49.118;12.146;2024-01-27T05:52:10;99177.91;;;-2.74;100.00
62025;BME280;47978;49.118;12.146;2024-01-27T05:56:25;99194.34;;;-2.76;100.00
62025;BME280;47978;49.118;12.146;2024-01-27T06:00:27;99190.22;;;-2.72;100.00
62025;BME280;47978;49.118;12.146;2024-01-27T06:04:29;99191.84;;;-2.62;100.00
62025;BME280;47978;49.118;12.146;2024-01-27T06:08:30;99194.03;;;-2.58;100.00
62025;BME280;47978;49.118;12.146;2024-01-27T06:12:33;99195.44;;;-2.62;100.00
62025;BME280;47978;49.118;12.146;2024-01-27T06:16:35;99195.72;;;-2.57;100.00
62025;BME280;47978;49.118;12.146;2024-01-27T06:20:36;99204.81;;;-2.73;100.00
62025;BME280;47978;49.118;12.146;2024-01-27T06:24:41;99205.28;;;-2.69;100.00
62025;BME280;47978;49.118;12.146;2024-01-27T06:28:44;99214.59;;;-2.72;100.00
62025;BME280;47978;49.118;12.146;2024-01-27T06:32:46;99217.00;;;-2.77;100.00
62025;BME280;47978;49.118;12.146;2024-01-27T06:36:48;99200.97;;;-2.86;100.00
62025;BME280;47978;49.118;12.146;2024-01-27T06:40:50;99208.63;;;-2.90;100.00
62025;BME280;47978;49.118;12.146;2024-01-27T06:44:53;99220.41;;;-2.83;100.00
62025;BME280;47978;49.118;12.146;2024-01-27T06:48:55;99221.59;;;-2.85;100.00
62025;BME280;47978;49.118;12.146;2024-01-27T06:52:56;99219.63;;;-2.91;100.00
62025;BME280;47978;49.118;12.146;2024-01-27T06:56:59;99221.47;;;-2.92;100.00
62025;BME280;47978;49.118;12.146;2024-01-27T07:01:02;99222.72;;;-3.03;100.00
62025;BME280;47978;49.118;12.146;2024-01-27T07:05:04;99223.34;;;-2.92;100.00
62025;BME280;47978;49.118;12.146;2024-01-27T07:09:06;99231.94;;;-2.89;100.00
62025;BME280;47978;49.118;12.146;2024-01-27T07:13:07;99233.16;;;-2.91;100.00
62025;BME280;47978;49.118;12.146;2024-01-27T07:17:10;99235.19;;;-2.94;100.00
62025;BME280;47978;49.118;12.146;2024-01-27T07:21:14;99239.91;;;-2.87;100.00
62025;BME280;47978;49.118;12.146;2024-01-27T07:25:16;99228.00;;;-2.78;100.00
62025;BME280;47978;49.118;12.146;2024-01-27T07:29:17;99238.53;;;-2.83;100.00
62025;BME280;47978;49.118;12.146;2024-01-27T07:33:20;99242.63;;;-2.87;100.00
62025;BME280;47978;49.118;12.146;2024-01-27T07:37:22;99241.59;;;-2.86;100.00
62025;BME280;47978;49.118;12.146;2024-01-27T07:41:23;99247.31;;;-2.81;100.00
62025;BME280;47978;49.118;12.146;2024-01-27T07:45:25;99261.41;;;-2.63;100.00
62025;BME280;47978;49.118;12.146;2024-01-27T07:49:28;99259.06;;;-2.66;100.00
62025;BME280;47978;49.118;12.146;2024-01-27T07:53:30;99261.38;;;-2.55;100.00
62025;BME280;47978;49.118;12.146;2024-01-27T07:57:31;99265.94;;;-2.55;100.00
62025;BME280;47978;49.118;12.146;2024-01-27T08:01:33;99267.22;;;-2.43;100.00
62025;BME280;47978;49.118;12.146;2024-01-27T08:05:36;99265.97;;;-2.32;100.00
62025;BME280;47978;49.118;12.146;2024-01-27T08:09:37;99273.84;;;-2.22;100.00
62025;BME280;47978;49.118;12.146;2024-01-27T08:13:39;99268.94;;;-2.19;100.00
62025;BME280;47978;49.118;12.146;2024-01-27T08:17:40;99275.06;;;-2.25;100.00
62025;BME280;47978;49.118;12.146;2024-01-27T08:21:43;99286.03;;;-2.18;100.00
62025;BME280;47978;49.118;12.146;2024-01-27T08:25:45;99282.97;;;-2.15;100.00
62025;BME280;47978;49.118;12.146;2024-01-27T08:29:46;99288.06;;;-2.20;100.00
62025;BME280;47978;49.118;12.146;2024-01-27T08:33:48;99288.19;;;-2.14;100.00
62025;BME280;47978;49.118;12.146;2024-01-27T08:37:51;99294.22;;;-2.04;100.00
62025;BME280;47978;49.118;12.146;2024-01-27T08:41:52;99301.56;;;-1.89;100.00
62025;BME280;47978;49.118;12.146;2024-01-27T08:45:54;99309.22;;;-1.70;100.00
62025;BME280;47978;49.118;12.146;2024-01-27T08:49:57;99318.56;;;-1.72;100.00
62025;BME280;47978;49.118;12.146;2024-01-27T08:54:00;99309.22;;;-1.70;100.00
62025;BME280;47978;49.118;12.146;2024-01-27T08:58:02;99312.66;;;-1.76;100.00
62025;BME280;47978;49.118;12.146;2024-01-27T09:02:03;99311.28;;;-1.57;100.00
62025;BME280;47978;49.118;12.146;2024-01-27T09:06:05;99316.47;;;-1.47;100.00
62025;BME280;47978;49.118;12.146;2024-01-27T09:10:09;99316.41;;;-1.39;100.00
62025;BME280;47978;49.118;12.146;2024-01-27T09:14:10;99312.13;;;-1.19;100.00
62025;BME280;47978;49.118;12.146;2024-01-27T09:18:12;99310.84;;;-1.08;100.00
62025;BME280;47978;49.118;12.146;2024-01-27T09:22:14;99317.38;;;-1.02;100.00
62025;BME280;47978;49.118;12.146;2024-01-27T09:26:17;99311.59;;;-0.99;100.00
62025;BME280;47978;49.118;12.146;2024-01-27T09:30:18;99309.78;;;-0.92;100.00
62025;BME280;47978;49.118;12.146;2024-01-27T09:34:20;99311.19;;;-0.81;100.00
62025;BME280;47978;49.118;12.146;2024-01-27T09:38:21;99320.56;;;-0.69;100.00
62025;BME280;47978;49.118;12.146;2024-01-27T09:42:24;99323.94;;;-0.67;100.00
62025;BME280;47978;49.118;12.146;2024-01-27T09:46:27;99323.03;;;-0.38;100.00
62025;BME280;47978;49.118;12.146;2024-01-27T09:50:28;99331.47;;;-0.33;100.00
62025;BME280;47978;49.118;12.146;2024-01-27T09:54:30;99327.34;;;0.79;100.00
62025;BME280;47978;49.118;12.146;2024-01-27T09:58:33;99329.22;;;1.41;100.00
62025;BME280;47978;49.118;12.146;2024-01-27T10:02:36;99334.41;;;1.36;100.00
62025;BME280;47978;49.118;12.146;2024-01-27T10:06:40;99345.69;;;1.68;100.00
62025;BME280;47978;49.118;12.146;2024-01-27T10:10:42;99343.72;;;1.96;100.00
62025;BME280;47978;49.118;12.146;2024-01-27T10:14:45;99344.41;;;2.12;99.07
62025;BME280;47978;49.118;12.146;2024-01-27T10:18:46;99338.75;;;2.20;99.42
62025;BME280;47978;49.118;12.146;2024-01-27T10:22:48;99348.44;;;2.29;97.13
62025;BME280;47978;49.118;12.146;2024-01-27T10:26:50;99348.03;;;2.45;95.94
62025;BME280;47978;49.118;12.146;2024-01-27T10:30:53;99348.22;;;2.44;95.29
62025;BME280;47978;49.118;12.146;2024-01-27T10:35:01;99345.91;;;2.41;95.34
62025;BME280;47978;49.118;12.146;2024-01-27T10:39:13;99337.13;;;2.45;95.63
62025;BME280;47978;49.118;12.146;2024-01-27T10:43:16;99330.63;;;2.60;95.10
62025;BME280;47978;49.118;12.146;2024-01-27T10:47:21;99340.06;;;2.64;93.91
62025;BME280;47978;49.118;12.146;2024-01-27T10:51:28;99334.84;;;2.82;90.66
62025;BME280;47978;49.118;12.146;2024-01-27T10:55:33;99327.69;;;2.88;89.29
62025;BME280;47978;49.118;12.146;2024-01-27T10:59:35;99324.94;;;2.95;89.58
62025;BME280;47978;49.118;12.146;2024-01-27T11:03:38;99332.06;;;3.09;87.64
62025;BME280;47978;49.118;12.146;2024-01-27T11:07:41;99339.19;;;3.10;86.93
62025;BME280;47978;49.118;12.146;2024-01-27T11:11:44;99323.22;;;3.07;87.50
62025;BME280;47978;49.118;12.146;2024-01-27T11:15:51;99319.59;;;3.33;86.19
62025;BME280;47978;49.118;12.146;2024-01-27T11:19:56;99316.69;;;3.21;87.01
62025;BME280;47978;49.118;12.146;2024-01-27T11:23:57;99308.44;;;3.41;85.91
62025;BME280;47978;49.118;12.146;2024-01-27T11:27:59;99307.41;;;3.35;86.48
62025;BME280;47978;49.118;12.146;2024-01-27T11:32:02;99307.44;;;3.29;88.42
62025;BME280;47978;49.118;12.146;2024-01-27T11:36:05;99312.41;;;3.52;85.96
62025;BME280;47978;49.118;12.146;2024-01-27T11:40:08;99313.91;;;3.48;86.33
62025;BME280;47978;49.118;12.146;2024-01-27T11:44:12;99311.63;;;3.31;86.73
62025;BME280;47978;49.118;12.146;2024-01-27T11:48:14;99312.25;;;3.40;85.96
62025;BME280;47978;49.118;12.146;2024-01-27T11:52:17;99312.22;;;3.47;85.35
62025;BME280;47978;49.118;12.146;2024-01-27T11:56:18;99308.75;;;3.71;82.53
62025;BME280;47978;49.118;12.146;2024-01-27T12:00:20;99305.44;;;3.63;84.01
62025;BME280;47978;49.118;12.146;2024-01-27T12:04:22;99303.06;;;3.73;83.65
62025;BME280;47978;49.118;12.146;2024-01-27T12:08:24;99302.19;;;3.86;81.81
62025;BME280;47978;49.118;12.146;2024-01-27T12:12:26;99303.25;;;3.78;81.29
62025;BME280;47978;49.118;12.146;2024-01-27T12:16:28;99291.03;;;3.80;81.91
62025;BME280;47978;49.118;12.146;2024-01-27T12:20:30;99297.38;;;3.74;83.39
62025;BME280;47978;49.118;12.146;2024-01-27T12:24:33;99296.53;;;4.12;82.27
62025;BME280;47978;49.118;12.146;2024-01-27T12:28:34;99276.81;;;4.03;81.86
62025;BME280;47978;49.118;12.146;2024-01-27T12:32:36;99288.38;;;4.05;78.46
62025;BME280;47978;49.118;12.146;2024-01-27T12:36:40;99282.47;;;4.09;80.20
62025;BME280;47978;49.118;12.146;2024-01-27T12:40:43;99278.44;;;4.11;80.82
62025;BME280;47978;49.118;12.146;2024-01-27T12:44:45;99276.78;;;4.10;79.85
62025;BME280;47978;49.118;12.146;2024-01-27T12:48:47;99280.22;;;3.99;81.61
62025;BME280;47978;49.118;12.146;2024-01-27T12:52:49;99272.28;;;4.22;80.10
62025;BME280;47978;49.118;12.146;2024-01-27T12:56:51;99271.00;;;4.25;80.04
62025;BME280;47978;49.118;12.146;2024-01-27T13:00:53;99265.47;;;4.00;82.43
62025;BME280;47978;49.118;12.146;2024-01-27T13:04:55;99265.63;;;4.37;81.02
62025;BME280;47978;49.118;12.146;2024-01-27T13:08:56;99266.00;;;4.47;80.06
62025;BME280;47978;49.118;12.146;2024-01-27T13:12:59;99260.84;;;4.57;79.99
62025;BME280;47978;49.118;12.146;2024-01-27T13:17:01;99261.91;;;4.56;80.25
62025;BME280;47978;49.118;12.146;2024-01-27T13:21:02;99272.19;;;4.61;79.69
62025;BME280;47978;49.118;12.146;2024-01-27T13:25:05;99269.13;;;4.50;78.53
62025;BME280;47978;49.118;12.146;2024-01-27T13:29:10;99267.16;;;4.33;79.30
62025;BME280;47978;49.118;12.146;2024-01-27T13:33:12;99265.94;;;4.54;78.78
62025;BME280;47978;49.118;12.146;2024-01-27T13:37:14;99266.31;;;4.57;76.98
62025;BME280;47978;49.118;12.146;2024-01-27T13:41:15;99262.09;;;4.61;76.28
62025;BME280;47978;49.118;12.146;2024-01-27T13:45:18;99265.88;;;4.60;77.36
62025;BME280;47978;49.118;12.146;2024-01-27T13:49:20;99277.53;;;4.49;78.11
62025;BME280;47978;49.118;12.146;2024-01-27T13:53:22;99277.00;;;4.65;76.27
62025;BME280;47978;49.118;12.146;2024-01-27T13:57:32;99281.41;;;4.66;74.80
62025;BME280;47978;49.118;12.146;2024-01-27T14:01:35;99283.50;;;4.71;75.02
62025;BME280;47978;49.118;12.146;2024-01-27T14:05:36;99286.44;;;4.69;76.63
62025;BME280;47978;49.118;12.146;2024-01-27T14:09:38;99292.94;;;4.75;75.98
62025;BME280;47978;49.118;12.146;2024-01-27T14:13:40;99278.38;;;4.74;76.80
62025;BME280;47978;49.118;12.146;2024-01-27T14:17:43;99268.44;;;4.80;75.93
62025;BME280;47978;49.118;12.146;2024-01-27T14:21:44;99265.41;;;4.63;76.45
62025;BME280;47978;49.118;12.146;2024-01-27T14:25:46;99254.31;;;4.33;78.17
62025;BME280;47978;49.118;12.146;2024-01-27T14:29:48;99260.72;;;4.70;75.32
62025;BME280;47978;49.118;12.146;2024-01-27T14:33:51;99268.34;;;4.68;73.83
62025;BME280;47978;49.118;12.146;2024-01-27T14:37:53;99261.19;;;4.42;76.40
62025;BME280;47978;49.118;12.146;2024-01-27T14:41:54;99263.84;;;4.49;76.39
62025;BME280;47978;49.118;12.146;2024-01-27T14:45:56;99260.63;;;4.59;76.59
62025;BME280;47978;49.118;12.146;2024-01-27T14:49:59;99261.84;;;4.38;77.24
62025;BME280;47978;49.118;12.146;2024-01-27T14:54:01;99245.63;;;4.36;77.28
62025;BME280;47978;49.118;12.146;2024-01-27T14:58:03;99246.88;;;4.09;80.42
62025;BME280;47978;49.118;12.146;2024-01-27T15:02:05;99245.31;;;3.49;85.23
62025;BME280;47978;49.118;12.146;2024-01-27T15:06:08;99241.63;;;3.30;87.35
62025;BME280;47978;49.118;12.146;2024-01-27T15:10:10;99237.34;;;2.69;91.25
62025;BME280;47978;49.118;12.146;2024-01-27T15:14:11;99246.78;;;2.07;96.53
62025;BME280;47978;49.118;12.146;2024-01-27T15:18:13;99257.63;;;1.74;99.52
62025;BME280;47978;49.118;12.146;2024-01-27T15:22:16;99267.59;;;1.47;100.00
62025;BME280;47978;49.118;12.146;2024-01-27T15:26:18;99274.84;;;1.26;100.00
62025;BME280;47978;49.118;12.146;2024-01-27T15:30:19;99272.69;;;1.15;100.00
62025;BME280;47978;49.118;12.146;2024-01-27T15:34:21;99259.38;;;0.92;100.00
62025;BME280;47978;49.118;12.146;2024-01-27T15:38:24;99271.66;;;0.81;100.00
62025;BME280;47978;49.118;12.146;2024-01-27T15:42:25;99282.59;;;0.60;100.00
62025;BME280;47978;49.118;12.146;2024-01-27T15:46:27;99291.94;;;0.51;100.00
62025;BME280;47978;49.118;12.146;2024-01-27T15:50:28;99291.59;;;0.32;100.00
62025;BME280;47978;49.118;12.146;2024-01-27T15:54:31;99302.59;;;0.24;100.00
62025;BME280;47978;49.118;12.146;2024-01-27T15:58:33;99297.94;;;0.18;100.00
62025;BME280;47978;49.118;12.146;2024-01-27T16:02:34;99315.47;;;0.15;100.00
62025;BME280;47978;49.118;12.146;2024-01-27T16:06:36;99302.56;;;0.03;100.00
62025;BME280;47978;49.118;12.146;2024-01-27T16:10:39;99313.13;;;-0.09;100.00
62025;BME280;47978;49.118;12.146;2024-01-27T16:14:42;99308.56;;;-0.24;100.00
62025;BME280;47978;49.118;12.146;2024-01-27T16:18:44;99319.50;;;-0.38;100.00
62025;BME280;47978;49.118;12.146;2024-01-27T16:22:46;99314.44;;;-0.41;100.00
62025;BME280;47978;49.118;12.146;2024-01-27T16:26:49;99330.28;;;-0.60;100.00
62025;BME280;47978;49.118;12.146;2024-01-27T16:30:51;99327.31;;;-0.65;100.00
62025;BME280;47978;49.118;12.146;2024-01-27T16:34:53;99316.09;;;-0.77;100.00
62025;BME280;47978;49.118;12.146;2024-01-27T16:38:54;99305.78;;;-0.81;100.00
62025;BME280;47978;49.118;12.146;2024-01-27T16:42:57;99313.09;;;-0.97;100.00
62025;BME280;47978;49.118;12.146;2024-01-27T16:46:59;99323.81;;;-1.03;100.00
62025;BME280;47978;49.118;12.146;2024-01-27T16:51:00;99323.28;;;-1.14;100.00
62025;BME280;47978;49.118;12.146;2024-01-27T16:55:03;99312.59;;;-1.15;100.00
62025;BME280;47978;49.118;12.146;2024-01-27T16:59:06;99319.13;;;-1.24;100.00
62025;BME280;47978;49.118;12.146;2024-01-27T17:03:07;99333.81;;;-1.33;100.00
62025;BME280;47978;49.118;12.146;2024-01-27T17:07:09;99348.28;;;-1.41;100.00
62025;BME280;47978;49.118;12.146;2024-01-27T17:11:10;99342.97;;;-1.34;100.00
62025;BME280;47978;49.118;12.146;2024-01-27T17:15:13;99357.72;;;-1.52;100.00
62025;BME280;47978;49.118;12.146;2024-01-27T17:19:15;99348.59;;;-1.36;100.00
62025;BME280;47978;49.118;12.146;2024-01-27T17:23:17;99350.53;;;-1.45;100.00
62025;BME280;47978;49.118;12.146;2024-01-27T17:27:19;99351.50;;;-1.61;100.00
62025;BME280;47978;49.118;12.146;2024-01-27T17:31:22;99356.81;;;-1.67;100.00
62025;BME280;47978;49.118;12.146;2024-01-27T17:35:23;99353.44;;;-1.69;100.00
62025;BME280;47978;49.118;12.146;2024-01-27T17:39:25;99352.97;;;-1.73;100.00
62025;BME280;47978;49.118;12.146;2024-01-27T17:43:26;99365.44;;;-1.87;100.00
62025;BME280;47978;49.118;12.146;2024-01-27T17:47:29;99365.44;;;-1.87;100.00
62025;BME280;47978;49.118;12.146;2024-01-27T17:51:31;99367.78;;;-1.84;100.00
62025;BME280;47978;49.118;12.146;2024-01-27T17:55:33;99377.00;;;-1.93;100.00
62025;BME280;47978;49.118;12.146;2024-01-27T17:59:37;99377.00;;;-1.93;100.00
62025;BME280;47978;49.118;12.146;2024-01-27T18:03:40;99369.28;;;-2.04;100.00
62025;BME280;47978;49.118;12.146;2024-01-27T18:07:41;99370.16;;;-2.12;100.00
62025;BME280;47978;49.118;12.146;2024-01-27T18:11:43;99375.53;;;-2.04;100.00
62025;BME280;47978;49.118;12.146;2024-01-27T18:15:44;99378.09;;;-2.02;100.00
62025;BME280;47978;49.118;12.146;2024-01-27T18:19:48;99371.44;;;-1.99;100.00
62025;BME280;47978;49.118;12.146;2024-01-27T18:23:49;99372.03;;;-2.12;100.00
62025;BME280;47978;49.118;12.146;2024-01-27T18:27:51;99361.66;;;-2.09;100.00
62025;BME280;47978;49.118;12.146;2024-01-27T18:31:52;99362.88;;;-2.11;100.00
62025;BME280;47978;49.118;12.146;2024-01-27T18:35:55;99371.56;;;-2.16;100.00
62025;BME280;47978;49.118;12.146;2024-01-27T18:39:57;99377.69;;;-2.22;100.00
62025;BME280;47978;49.118;12.146;2024-01-27T18:43:59;99389.22;;;-2.28;100.00
62025;BME280;47978;49.118;12.146;2024-01-27T18:48:00;99385.81;;;-2.22;100.00
62025;BME280;47978;49.118;12.146;2024-01-27T18:52:04;99394.34;;;-2.33;100.00
62025;BME280;47978;49.118;12.146;2024-01-27T18:56:06;99403.13;;;-2.39;100.00
62025;BME280;47978;49.118;12.146;2024-01-27T19:00:08;99397.63;;;-2.54;100.00
62025;BME280;47978;49.118;12.146;2024-01-27T19:04:10;99404.28;;;-2.73;100.00
62025;BME280;47978;49.118;12.146;2024-01-27T19:08:13;99402.25;;;-2.71;100.00
62025;BME280;47978;49.118;12.146;2024-01-27T19:12:15;99408.81;;;-2.65;100.00
62025;BME280;47978;49.118;12.146;2024-01-27T19:16:16;99417.28;;;-2.60;100.00
62025;BME280;47978;49.118;12.146;2024-01-27T19:20:18;99423.78;;;-2.86;100.00
62025;BME280;47978;49.118;12.146;2024-01-27T19:24:21;99432.03;;;-2.79;100.00
62025;BME280;47978;49.118;12.146;2024-01-27T19:28:22;99430.03;;;-2.94;100.00
62025;BME280;47978;49.118;12.146;2024-01-27T19:32:24;99428.00;;;-2.83;100.00
62025;BME280;47978;49.118;12.146;2024-01-27T19:36:25;99424.25;;;-2.82;100.00
62025;BME280;47978;49.118;12.146;2024-01-27T19:40:28;99428.00;;;-2.83;100.00
62025;BME280;47978;49.118;12.146;2024-01-27T19:44:30;99430.69;;;-2.83;100.00
62025;BME280;47978;49.118;12.146;2024-01-27T19:48:31;99429.69;;;-2.90;100.00
62025;BME280;47978;49.118;12.146;2024-01-27T19:52:33;99436.81;;;-2.98;100.00
62025;BME280;47978;49.118;12.146;2024-01-27T19:56:36;99425.44;;;-2.85;100.00
62025;BME280;47978;49.118;12.146;2024-01-27T20:00:37;99426.81;;;-2.97;100.00
62025;BME280;47978;49.118;12.146;2024-01-27T20:04:39;99429.88;;;-2.92;100.00
62025;BME280;47978;49.118;12.146;2024-01-27T20:08:41;99436.13;;;-2.91;100.00
62025;BME280;47978;49.118;12.146;2024-01-27T20:12:44;99427.84;;;-2.90;100.00
62025;BME280;47978;49.118;12.146;2024-01-27T20:16:46;99438.34;;;-3.03;100.00
62025;BME280;47978;49.118;12.146;2024-01-27T20:20:47;99432.72;;;-2.94;100.00
62025;BME280;47978;49.118;12.146;2024-01-27T20:24:49;99441.19;;;-2.97;100.00
62025;BME280;47978;49.118;12.146;2024-01-27T20:28:52;99431.06;;;-2.95;100.00
62025;BME280;47978;49.118;12.146;2024-01-27T20:32:53;99429.38;;;-2.96;100.00
62025;BME280;47978;49.118;12.146;2024-01-27T20:36:55;99419.56;;;-2.97;100.00
62025;BME280;47978;49.118;12.146;2024-01-27T20:40:56;99423.13;;;-3.04;100.00
62025;BME280;47978;49.118;12.146;2024-01-27T20:44:59;99428.22;;;-3.09;100.00
62025;BME280;47978;49.118;12.146;2024-01-27T20:49:01;99433.13;;;-3.13;100.00
62025;BME280;47978;49.118;12.146;2024-01-27T20:53:03;99443.25;;;-3.07;100.00
62025;BME280;47978;49.118;12.146;2024-01-27T20:57:04;99432.91;;;-2.87;100.00